Flight Track Log - Related Links

Times and Time Zones

All times are in EDT time to prevent confusion due to time zone crossing. See the RPA3379 flight status page for this flight to view local times or setup timezone preferences in your user account.

Time Position Orientation Groundspeed Altitude Reporting Facility
EDT Latitude Longitude Course Direction KTS MPH feet Rate Location/Type
Mon 05:41:54 PM 40.0031 -82.9211 96° East 157 181 1,800  Level Indianapolis Center
Mon 05:42:54 PM 40.0067 -82.9722 275° West 162 186 3,400 2,262 Climbing Indianapolis Center
Mon 05:43:56 PM 39.9700 -83.0317 231° Southwest 243 280 6,400 3,122 Climbing Indianapolis Center
Mon 05:44:00 PM 39.9667 -82.5182 90° East  Level FlightAware Approximate
Mon 05:44:57 PM 39.9325 -82.9458 120° Southeast 293 337 9,800  Level Indianapolis Center
Mon 05:45:00 PM 39.9667 -82.3956 90° East  Level FlightAware Approximate
Mon 05:45:59 PM 39.9347 -82.8311 89° East 311 358 12,800  Level Indianapolis Center
Mon 05:46:00 PM 39.9595 -82.2734 96° East  Level FlightAware Approximate
Mon 05:47:00 PM 39.9501 -82.1515 96° East  Level FlightAware Approximate
Mon 05:47:01 PM 39.9367 -82.7094 89° East 324 373 15,600  Level Indianapolis Center
Mon 05:48:03 PM 39.9453 -82.5592 86° East 347 399 17,700 1,756 Climbing Indianapolis Center
Mon 05:49:04 PM 39.9525 -82.4108 86° East 395 455 19,200 1,854 Climbing Indianapolis Center
Mon 05:50:06 PM 39.9592 -82.2575 87° East 418 481 21,500 1,935 Climbing Indianapolis Center
Mon 05:51:08 PM 39.9658 -82.1008 87° East 424 488 23,200 1,548 Climbing Indianapolis Center
Mon 05:52:10 PM 39.9733 -81.9378 87° East 442 509 24,700 871 Climbing Indianapolis Center
Mon 05:53:12 PM 39.9803 -81.7750 87° East 447 514 25,000 145 Climbing Indianapolis Center
Mon 05:54:14 PM 39.9789 -81.6136 91° East 452 520 25,000  Level Indianapolis Center
Mon 05:55:15 PM 39.9258 -81.4656 115° Southeast 443 510 25,000  Level Indianapolis Center
Mon 05:56:17 PM 39.8708 -81.3172 116° Southeast 446 513 25,000  Level Indianapolis Center
Mon 05:57:19 PM 39.8144 -81.1669 116° Southeast 457 526 25,000  Level Indianapolis Center
Mon 05:58:21 PM 39.7483 -80.9922 116° Southeast 450 518 25,000  Level Indianapolis Center
Mon 05:59:22 PM 39.6919 -80.8483 117° Southeast 446 513 25,000  Level Indianapolis Center
Mon 06:00:24 PM 39.6372 -80.7025 116° Southeast 448 516 25,000  Level Indianapolis Center
Mon 06:01:26 PM 39.5803 -80.5561 117° Southeast 453 521 25,000  Level Indianapolis Center
Mon 06:02:28 PM 39.5236 -80.4103 117° Southeast 453 521 25,000  Level Indianapolis Center
Mon 06:03:07 PM 39.4936 -80.3275 115° Southeast 433 498 25,000  Level Washington Center
Mon 06:04:05 PM 39.4347 -80.1786 117° Southeast 448 516 25,000  Level Washington Center
Mon 06:05:05 PM 39.3775 -80.0328 117° Southeast 454 522 25,000  Level Washington Center
Mon 06:06:06 PM 39.3225 -79.8869 116° Southeast 454 522 25,000  Level Washington Center
Mon 06:07:06 PM 39.2881 -79.7347 106° East 454 522 25,000  Level Washington Center
Mon 06:08:04 PM 39.2769 -79.5758 95° East 439 505 25,000  Level Washington Center
Mon 06:09:06 PM 39.2633 -79.4117 96° East 446 513 25,000  Level Washington Center
Mon 06:10:07 PM 39.2517 -79.2531 95° East 451 519 25,000  Level Washington Center
Mon 06:11:05 PM 39.2336 -79.0939 98° East 446 513 25,000  Level Washington Center
Mon 06:12:05 PM 39.2211 -78.9406 96° East 446 513 25,000 -857 Level Washington Center
Mon 06:13:04 PM 39.2044 -78.7872 98° East 440 506 23,300 -2,168 Descending Washington Center
Mon 06:14:04 PM 39.1917 -78.6392 96° East 430 495 20,700 -2,331 Descending Washington Center
Mon 06:15:05 PM 39.1764 -78.4967 98° East 420 483 18,600 -1,835 Descending Washington Center
Mon 06:16:05 PM 39.1589 -78.3594 99° East 398 458 17,000 -793 Descending Washington Center
Mon 06:17:06 PM 39.1267 -78.2164 106° East 386 444 17,000 -101 Level Washington Center
Mon 06:18:04 PM 39.0939 -78.0869 108° East 381 438 16,800 -1,119 Descending Washington Center
Mon 06:19:04 PM 39.0611 -77.9575 108° East 381 438 14,800 -1,820 Descending Washington Center
Mon 06:20:06 PM 39.0339 -77.8469 108° East 366 421 13,100 -1,659 Descending Washington Center
Mon 06:21:07 PM 39.0047 -77.7419 110° East 343 395 11,400 -1,678 Descending Washington Center
Mon 06:22:04 PM 38.9775 -77.6317 108° East 329 379 9,800 -1,483 Descending Washington Center
Mon 06:22:36 PM 38.9500 -77.5667 119° Southeast 313 360 9,200 -1,032 Descending Potomac TRACON
Mon 06:23:37 PM 38.9167 -77.4667 113° Southeast 303 349 8,200 -1,140 Descending Potomac TRACON
Mon 06:24:37 PM 38.8833 -77.3833 117° Southeast 297 342 6,900 -1,100 Descending Potomac TRACON
Mon 06:25:37 PM 38.8333 -77.2833 123° Southeast 289 333 6,000 -429 Descending Potomac TRACON
Mon 06:26:43 PM 38.8000 -77.1833 113° Southeast 290 334 6,000 -545 Level Potomac TRACON
Mon 06:27:38 PM 38.7500 -77.1167 134° Southeast 285 328 4,900 -1,884 Descending Potomac TRACON
Mon 06:28:44 PM 38.6667 -77.1000 171° South 261 300 2,200 -1,450 Descending Potomac TRACON
Mon 06:29:38 PM 38.6500 -77.0500 113° Southeast 239 275 2,000 -222 Descending Potomac TRACON

Login

Don't have an account? Register now (free) for customized features, flight alerts, and more!